Mauston, WI (53948)

3:02 AM CDT on July 26, 2016 (GMT -0500)
Juneau County Weather | | Change Station

Elev 873 ft 43.80 °N, 90.07 °W | Updated 8 seconds ago

Fog
Fog
65.1 °F
Feels Like 65.1 °F
N
0.0
Wind Variable Wind from WNW
Gusts 0.0 mph

Today
High -- | Low -- °F
--% Chance of Precip.
Yesterday
High -- | Low -- °F
Precip. -- in
Pressure 30.06 in
Visibility 0.2 miles
Clouds Clear
Dew Point 64 °F
Humidity 97%
Rainfall 0.00 in
Snow Depth Not available.
5:43 AM 8:29 PM
Waning Gibbous, 57% visible
METAR KVOK 260758Z AUTO 00000KT 1/4SM R27/0900FT FG CLR 13/13 A3006 RMK AO2 SLP179 T01290128
Pressure 30.06 in
Visibility 0.2 miles
Clouds Clear
Dew Point 64 °F
Humidity 97%
Rainfall 0.00 in
Snow Depth Not available.
5:43 AM 8:29 PM
Waning Gibbous, 57% visible
METAR KVOK 260758Z AUTO 00000KT 1/4SM R27/0900FT FG CLR 13/13 A3006 RMK AO2 SLP179 T01290128

10-Day Weather Forecast

Almanac

Astronomy

Jul. 26, 2016 Rise Set
Actual Time
Civil Twilight
Nautical Twilight
Astronomical Twilight
Moon
Length of Visible Light
Length of Day
Tomorrow will be .
, % of the Moon is Illuminated

Today's Extremes

State Highs State Lows

Community

WunderPhotos

Upload Photos

1,927,551 photos uploaded!

WunderBlog® & News

Nearby

Air Quality

  Air Quality AQ Index Pollutant
Not available.

Snow Depth

Station Depth Elevation

Earthquake Activity

City Distance Mag. Time & Date
Minimum magnitude displayed is 2.5.

Coastal Water Temperatures

Place Temperature

Stations

Nearby Weather Stations

Station Location Temp. Windchill Dew Point Humidity Wind Precip. Elev Updated Type
                   

Watches & Warnings

There are currently no watches in effect.